Time;durP1;ratioP1;P1;durP2;ratioP2;P2;SDS_P1;SDS_P2;PMS_P1;PMS_P2;Temp;Humidity;BMP_temperature;BMP_pressure;BME280_temperature;BME280_humidity;BME280_pressure;Samples;Min_cycle;Max_cycle;Signal;HPM_P1;HPM_P2
2023/12/26 00:02:09;;;;;;;4.20;4.00;;;;;;;11.29;100.00;99939.28;5988304;23;20092;-68
2023/12/26 00:04:35;;;;;;;5.68;5.35;;;;;;;10.97;100.00;99913.38;6049845;23;20336;-69
2023/12/26 00:07:02;;;;;;;3.97;3.80;;;;;;;10.67;100.00;99846.22;6046462;23;20018;-70
2023/12/26 00:09:28;;;;;;;3.95;3.75;;;;;;;10.97;100.00;99911.59;6050761;23;20344;-69
2023/12/26 00:11:55;;;;;;;4.00;3.80;;;;;;;11.04;100.00;99967.16;6020753;23;20158;-68
2023/12/26 00:14:21;;;;;;;5.05;4.82;;;;;;;10.56;100.00;99919.53;6036682;23;20019;-67
2023/12/26 00:16:48;;;;;;;4.22;4.03;;;;;;;10.88;100.00;100004.06;6033905;23;20301;-67
2023/12/26 00:19:14;;;;;;;4.13;3.92;;;;;;;10.57;100.00;99934.38;6031104;23;20027;-70
2023/12/26 00:21:43;;;;;;;4.70;4.50;;;;;;;10.97;100.00;100008.72;6038867;23;20015;-69
2023/12/26 00:24:10;;;;;;;5.55;5.35;;;;;;;10.90;100.00;100027.59;6050009;23;20293;-69
2023/12/26 00:26:37;;;;;;;5.38;5.18;;;;;;;10.72;100.00;99991.13;6042199;23;20018;-71
2023/12/26 00:29:06;;;;;;;4.05;3.85;;;;;;;10.42;100.00;99922.22;6050907;23;20484;-70
2023/12/26 00:31:33;;;;;;;4.22;4.03;;;;;;;10.87;100.00;100006.81;6043366;23;20018;-68
2023/12/26 00:33:59;;;;;;;4.13;3.92;;;;;;;10.49;100.00;99944.50;6021536;23;20026;-70
2023/12/26 00:36:26;;;;;;;5.40;5.20;;;;;;;10.78;100.00;99984.59;6021199;23;20209;-69
2023/12/26 00:38:52;;;;;;;4.20;4.00;;;;;;;10.81;100.00;99988.84;6050807;23;20030;-68
2023/12/26 00:41:19;;;;;;;4.13;3.92;;;;;;;10.37;100.00;99925.16;6050837;23;20593;-70
2023/12/26 00:43:45;;;;;;;4.10;3.90;;;;;;;10.64;100.00;99953.16;6023506;23;20054;-71
2023/12/26 00:46:12;;;;;;;4.43;4.18;;;;;;;10.69;100.00;99972.94;6049160;23;20382;-70
2023/12/26 00:48:38;;;;;;;4.63;4.32;;;;;;;10.44;100.00;99936.91;6041617;23;20397;-69
2023/12/26 00:51:05;;;;;;;4.30;4.10;;;;;;;10.74;100.00;99952.50;6040386;23;20417;-70
2023/12/26 00:53:32;;;;;;;3.95;3.80;;;;;;;10.81;100.00;99933.72;6031182;23;20053;-69
2023/12/26 00:55:59;;;;;;;4.10;3.90;;;;;;;10.76;100.00;99908.63;6046672;23;20030;-70
2023/12/26 00:58:25;;;;;;;5.28;4.97;;;;;;;10.58;100.00;99880.94;6044926;23;20884;-69
2023/12/26 01:00:52;;;;;;;4.30;4.10;;;;;;;10.35;100.00;99854.44;6026492;23;20026;-68
2023/12/26 01:03:22;;;;;;;4.55;4.35;;;;;;;10.61;100.00;99893.03;6001526;23;20066;-69
2023/12/26 01:05:49;;;;;;;4.75;4.55;;;;;;;10.49;100.00;99871.88;6028685;23;20513;-69
2023/12/26 01:08:18;;;;;;;4.30;4.10;;;;;;;9.74;100.00;99724.66;6008818;23;20072;-67
2023/12/26 01:10:45;;;;;;;4.60;4.40;;;;;;;10.74;100.00;99858.00;5989313;23;20070;-69
2023/12/26 01:13:11;;;;;;;4.40;4.20;;;;;;;10.69;100.00;99831.22;5988486;23;20099;-70
2023/12/26 01:15:39;;;;;;;4.10;3.90;;;;;;;10.63;100.00;99834.25;6021486;23;20077;-69
2023/12/26 01:18:06;;;;;;;4.25;4.05;;;;;;;10.06;100.00;99758.41;6025326;23;20336;-69
2023/12/26 01:20:33;;;;;;;5.45;5.18;;;;;;;10.57;100.00;99832.88;6015436;23;20026;-69
2023/12/26 01:22:59;;;;;;;4.22;4.03;;;;;;;10.60;100.00;99839.69;6028746;23;20470;-70
2023/12/26 01:25:26;;;;;;;4.20;4.00;;;;;;;10.20;100.00;99750.50;6016571;23;20107;-69
2023/12/26 01:27:52;;;;;;;4.75;4.30;;;;;;;10.32;100.00;99770.72;6022918;23;20086;-68
2023/12/26 01:30:19;;;;;;;4.93;4.53;;;;;;;10.29;100.00;99777.91;6024035;23;20269;-70
2023/12/26 01:32:46;;;;;;;4.70;4.50;;;;;;;10.23;100.00;99755.53;6029244;23;20370;-69
2023/12/26 01:35:12;;;;;;;4.38;4.18;;;;;;;10.14;100.00;99751.75;6000635;23;20049;-70
2023/12/26 01:37:39;;;;;;;4.18;3.97;;;;;;;10.15;100.00;99770.94;6020661;23;20714;-68
2023/12/26 01:40:06;;;;;;;4.40;4.20;;;;;;;10.05;100.00;99730.53;6027149;23;20038;-69
2023/12/26 01:42:32;;;;;;;6.22;5.82;;;;;;;10.55;100.00;99820.81;6021499;23;20023;-68
2023/12/26 01:45:00;;;;;;;5.00;4.65;;;;;;;10.53;100.00;99789.41;6002865;23;20478;-68
2023/12/26 01:47:27;;;;;;;4.60;4.30;;;;;;;10.22;100.00;99732.88;6027423;23;20415;-70
2023/12/26 01:49:54;;;;;;;4.90;4.60;;;;;;;8.84;100.00;99490.44;6023261;23;20023;-70
2023/12/26 01:52:20;;;;;;;5.22;4.82;;;;;;;10.54;100.00;99769.25;6024939;23;20618;-69
2023/12/26 01:54:47;;;;;;;4.45;4.15;;;;;;;10.52;100.00;99774.63;5996825;23;20077;-70
2023/12/26 01:57:14;;;;;;;4.38;4.10;;;;;;;10.29;100.00;99797.09;6027536;23;20082;-68
2023/12/26 01:59:42;;;;;;;5.43;5.03;;;;;;;10.32;100.00;99833.66;6028102;23;20149;-68
2023/12/26 02:02:10;;;;;;;3.88;3.70;;;;;;;9.89;100.00;99820.63;6023235;23;20380;-71
2023/12/26 02:04:37;;;;;;;9.73;5.97;;;;;;;10.13;100.00;99885.56;6019143;23;20023;-69
2023/12/26 02:07:06;;;;;;;5.13;4.70;;;;;;;10.13;100.00;99917.84;6017576;23;20466;-68
2023/12/26 02:09:33;;;;;;;4.40;4.20;;;;;;;9.58;100.00;99864.47;5996847;23;20442;-69
2023/12/26 02:11:59;;;;;;;4.50;4.20;;;;;;;9.98;100.00;99952.88;6027672;23;20030;-70
2023/12/26 02:14:26;;;;;;;16.55;15.73;;;;;;;9.98;100.00;99984.34;5885855;23;20402;-70
2023/12/26 02:16:54;;;;;;;4.88;4.63;;;;;;;9.66;100.00;99946.97;6006000;23;20447;-70
2023/12/26 02:19:20;;;;;;;4.88;4.57;;;;;;;9.81;100.00;100011.56;6021980;23;20034;-69
2023/12/26 02:21:47;;;;;;;4.63;4.43;;;;;;;9.47;100.00;99992.63;6002272;23;20238;-70
2023/12/26 02:24:13;;;;;;;4.75;4.45;;;;;;;9.61;100.00;100027.66;6030522;23;20378;-69
2023/12/26 02:26:41;;;;;;;6.97;4.88;;;;;;;9.65;100.00;100026.53;6014935;23;20017;-69
2023/12/26 02:29:09;;;;;;;3.90;3.70;;;;;;;9.85;100.00;100083.00;5996652;23;20100;-69
2023/12/26 02:31:37;;;;;;;3.80;3.70;;;;;;;9.66;100.00;100089.31;6024859;23;20038;-69
2023/12/26 02:34:04;;;;;;;4.10;3.90;;;;;;;9.70;100.00;100118.78;6025354;23;20038;-70
2023/12/26 02:36:30;;;;;;;5.57;5.28;;;;;;;9.55;100.00;100103.03;6019705;23;20027;-68
2023/12/26 02:38:57;;;;;;;4.20;4.00;;;;;;;9.70;100.00;100131.88;6026128;23;20037;-70
2023/12/26 02:41:23;;;;;;;4.47;4.28;;;;;;;8.54;100.00;99954.34;6024049;23;20107;-70
2023/12/26 02:43:50;;;;;;;7.97;4.68;;;;;;;9.67;100.00;100147.81;6022174;23;20029;-70
2023/12/26 02:46:16;;;;;;;4.20;4.00;;;;;;;9.52;100.00;100141.66;6023708;23;20007;-71
2023/12/26 02:48:42;;;;;;;5.45;4.95;;;;;;;9.57;100.00;100163.19;6020903;23;20089;-69
2023/12/26 02:51:09;;;;;;;4.00;3.80;;;;;;;9.65;100.00;100171.47;5999982;23;20102;-70
2023/12/26 02:53:35;;;;;;;4.30;4.10;;;;;;;9.65;100.00;100176.69;6026479;23;20030;-68
2023/12/26 02:56:02;;;;;;;3.65;3.55;;;;;;;9.69;100.00;100190.47;6021309;23;20046;-70
2023/12/26 02:58:29;;;;;;;5.35;5.15;;;;;;;9.71;100.00;100189.44;6022287;23;20010;-69
2023/12/26 03:00:55;;;;;;;4.20;3.95;;;;;;;9.64;100.00;100195.13;6021596;23;20029;-68
2023/12/26 03:03:22;;;;;;;3.67;3.55;;;;;;;9.69;100.00;100207.03;6025263;23;20061;-69
2023/12/26 03:05:48;;;;;;;4.60;4.40;;;;;;;9.19;100.00;100130.34;6026504;23;20011;-68
2023/12/26 03:08:15;;;;;;;4.18;3.97;;;;;;;9.67;100.00;100214.16;6022307;23;20042;-68
2023/12/26 03:10:41;;;;;;;4.35;4.15;;;;;;;9.37;100.00;100169.56;6047167;23;20488;-68
2023/12/26 03:13:08;;;;;;;4.18;3.88;;;;;;;9.71;100.00;100218.28;6042539;23;20549;-69
2023/12/26 03:15:34;;;;;;;4.28;4.07;;;;;;;9.47;100.00;100186.44;6042042;23;20206;-70
2023/12/26 03:18:01;;;;;;;4.20;4.00;;;;;;;9.68;100.00;100204.50;6046288;23;20094;-71
2023/12/26 03:20:27;;;;;;;5.50;5.15;;;;;;;9.32;100.00;100158.47;6047543;23;20026;-71
2023/12/26 03:22:54;;;;;;;4.30;4.10;;;;;;;9.33;100.00;100152.31;6052362;23;20070;-71
2023/12/26 03:25:21;;;;;;;4.20;4.00;;;;;;;9.74;100.00;100218.13;6037515;23;20018;-69
2023/12/26 03:27:49;;;;;;;4.22;4.03;;;;;;;9.73;100.00;100202.47;6041198;23;20501;-70
2023/12/26 03:30:15;;;;;;;3.95;3.78;;;;;;;9.48;100.00;100166.31;6041717;23;20030;-71
2023/12/26 03:32:44;;;;;;;4.32;4.13;;;;;;;9.19;100.00;100137.38;6002118;23;20039;-69
2023/12/26 03:35:10;;;;;;;4.20;4.00;;;;;;;9.28;100.00;100157.81;6000491;23;20148;-69
2023/12/26 03:37:37;;;;;;;4.20;4.00;;;;;;;9.32;100.00;100169.81;6036001;23;20352;-69
2023/12/26 03:40:04;;;;;;;4.20;3.92;;;;;;;9.37;100.00;100180.03;6052221;23;20018;-69
2023/12/26 03:42:31;;;;;;;5.43;5.22;;;;;;;9.67;100.00;100221.16;6026209;23;20261;-69
2023/12/26 03:44:58;;;;;;;4.13;3.92;;;;;;;8.67;100.00;100070.41;6047963;23;20049;-69
2023/12/26 03:47:24;;;;;;;4.10;3.90;;;;;;;9.72;100.00;100214.75;6016545;23;20035;-68
2023/12/26 03:49:52;;;;;;;4.65;4.45;;;;;;;9.72;100.00;100221.72;6040973;23;20467;-68
2023/12/26 03:52:18;;;;;;;3.90;3.75;;;;;;;9.48;100.00;100210.84;6055064;23;20026;-71
2023/12/26 03:54:44;;;;;;;4.30;4.10;;;;;;;9.67;100.00;100222.00;6043661;23;20063;-69
2023/12/26 03:57:11;;;;;;;4.00;3.80;;;;;;;9.73;100.00;100219.03;6021686;23;20118;-70
2023/12/26 03:59:37;;;;;;;4.20;4.00;;;;;;;9.72;100.00;100221.72;6051873;23;20084;-71
2023/12/26 04:02:04;;;;;;;4.20;4.00;;;;;;;9.56;100.00;100201.66;6037782;23;20648;-69
2023/12/26 04:04:31;;;;;;;5.22;4.95;;;;;;;9.77;100.00;100225.78;6019797;23;20405;-67
2023/12/26 04:06:57;;;;;;;4.32;4.13;;;;;;;9.73;100.00;100218.19;6048852;23;20023;-70
2023/12/26 04:09:24;;;;;;;7.72;3.92;;;;;;;9.33;100.00;100149.72;6054122;23;20026;-70
2023/12/26 04:11:50;;;;;;;4.20;4.00;;;;;;;9.73;100.00;100232.13;6052892;23;20048;-71
2023/12/26 04:14:17;;;;;;;4.20;4.00;;;;;;;8.61;100.00;100062.91;6048309;23;20041;-68
2023/12/26 04:16:43;;;;;;;4.13;3.92;;;;;;;9.77;100.00;100244.13;6040583;23;20241;-69
2023/12/26 04:19:12;;;;;;;4.07;3.85;;;;;;;9.35;100.00;100172.25;6048830;23;20018;-68
2023/12/26 04:21:39;;;;;;;4.53;4.32;;;;;;;9.75;100.00;100234.69;6032412;23;20029;-70
2023/12/26 04:24:05;;;;;;;4.00;3.80;;;;;;;9.55;100.00;100210.44;6042700;23;20028;-66
2023/12/26 04:26:32;;;;;;;5.50;5.30;;;;;;;9.41;100.00;100196.44;6037825;23;20089;-69
2023/12/26 04:28:58;;;;;;;4.55;4.35;;;;;;;9.75;100.00;100253.03;6042670;23;20022;-68
2023/12/26 04:31:25;;;;;;;4.13;3.92;;;;;;;9.75;100.00;100258.25;6045943;23;20581;-69
2023/12/26 04:33:52;;;;;;;4.00;3.80;;;;;;;9.73;100.00;100273.22;6050459;23;20024;-69
2023/12/26 04:36:19;;;;;;;4.10;3.90;;;;;;;9.35;100.00;100223.78;6047671;23;20457;-69
2023/12/26 04:38:45;;;;;;;6.05;4.47;;;;;;;9.66;100.00;100266.63;6029152;23;20018;-70
2023/12/26 04:41:12;;;;;;;3.85;3.65;;;;;;;9.67;100.00;100289.28;6049769;23;20113;-68
2023/12/26 04:43:39;;;;;;;4.57;4.18;;;;;;;9.65;100.00;100297.22;6020540;23;20090;-70
2023/12/26 04:46:05;;;;;;;4.03;3.83;;;;;;;9.55;100.00;100303.91;6030777;23;20038;-69
2023/12/26 04:48:34;;;;;;;5.30;5.10;;;;;;;9.23;100.00;100250.66;6048785;23;20058;-67
2023/12/26 04:51:00;;;;;;;4.10;3.90;;;;;;;9.44;100.00;100294.00;6046776;23;20426;-68
2023/12/26 04:53:27;;;;;;;4.13;3.92;;;;;;;9.55;100.00;100338.78;6047178;23;20015;-70
2023/12/26 04:55:54;;;;;;;4.00;3.80;;;;;;;9.60;100.00;100349.00;6021277;23;20031;-70
2023/12/26 04:58:20;;;;;;;10.30;4.90;;;;;;;8.29;100.00;100112.50;6036975;23;20093;-69
2023/12/26 05:00:46;;;;;;;4.38;4.18;;;;;;;9.73;100.00;100341.34;5973703;23;20058;-69
2023/12/26 05:03:13;;;;;;;9.70;4.13;;;;;;;9.24;100.00;100254.94;6050125;23;20167;-70
2023/12/26 05:05:42;;;;;;;8.32;4.60;;;;;;;9.20;100.00;100254.28;6006776;23;20019;-70
2023/12/26 05:08:08;;;;;;;4.13;3.92;;;;;;;9.74;100.00;100335.16;6033132;23;20018;-70
2023/12/26 05:10:34;;;;;;;4.97;4.78;;;;;;;9.57;100.00;100323.84;6022684;23;20027;-69
2023/12/26 05:13:01;;;;;;;4.50;4.20;;;;;;;9.65;100.00;100349.63;6032270;23;20222;-70
2023/12/26 05:15:27;;;;;;;4.13;3.92;;;;;;;9.69;100.00;100345.06;6055842;23;20355;-70
2023/12/26 05:17:54;;;;;;;4.25;4.05;;;;;;;9.75;100.00;100348.19;6015138;23;20067;-69
2023/12/26 05:20:21;;;;;;;4.35;4.15;;;;;;;9.44;100.00;100231.16;6028929;23;20044;-72
2023/12/26 05:22:56;;;;;;;4.00;3.80;;;;;;;9.91;100.00;100308.88;6038608;23;20437;-69
2023/12/26 05:25:24;;;;;;;4.13;3.92;;;;;;;9.45;100.00;100216.28;6050540;23;20026;-67
2023/12/26 05:27:51;;;;;;;5.22;4.47;;;;;;;9.46;100.00;100226.69;6054974;23;20274;-68
2023/12/26 05:30:17;;;;;;;4.00;3.80;;;;;;;9.74;100.00;100264.41;6020431;23;20040;-70
2023/12/26 05:32:44;;;;;;;4.40;4.20;;;;;;;9.42;100.00;100209.44;6052771;23;20055;-70
2023/12/26 05:35:11;;;;;;;4.68;4.10;;;;;;;9.59;100.00;100243.38;6029617;23;20082;-67
2023/12/26 05:37:37;;;;;;;3.80;3.70;;;;;;;9.98;100.00;100285.78;6036537;23;20486;-68
2023/12/26 05:40:04;;;;;;;6.05;4.00;;;;;;;9.99;100.00;100301.44;6046847;23;20022;-68
2023/12/26 05:42:31;;;;;;;9.13;5.30;;;;;;;9.92;100.00;100299.25;6050527;23;20466;-67
2023/12/26 05:44:57;;;;;;;4.07;3.88;;;;;;;9.91;100.00;100301.03;6042959;23;20285;-67
2023/12/26 05:47:23;;;;;;;4.00;3.80;;;;;;;9.49;100.00;100236.13;6004018;23;20327;-69
2023/12/26 05:49:52;;;;;;;4.65;4.45;;;;;;;9.56;100.00;100247.94;6004575;23;20509;-70
2023/12/26 05:52:19;;;;;;;4.10;3.90;;;;;;;9.84;100.00;100310.16;6051100;23;20102;-68
2023/12/26 05:54:45;;;;;;;4.15;3.95;;;;;;;9.77;100.00;100309.66;6051312;23;20485;-70
2023/12/26 05:57:12;;;;;;;3.78;3.67;;;;;;;9.62;100.00;100292.13;6052611;23;20030;-69
2023/12/26 05:59:38;;;;;;;5.10;4.13;;;;;;;9.84;100.00;100330.28;6020230;23;20525;-69
2023/12/26 06:02:05;;;;;;;3.85;3.72;;;;;;;9.79;100.00;100322.69;6037900;23;20027;-70
2023/12/26 06:04:31;;;;;;;5.05;4.85;;;;;;;9.81;100.00;100309.50;6016462;23;20050;-69
2023/12/26 06:06:58;;;;;;;13.30;4.32;;;;;;;9.57;100.00;100281.91;6047698;23;20030;-69
2023/12/26 06:09:26;;;;;;;4.80;3.83;;;;;;;9.39;100.00;100261.97;6024736;23;20305;-67
2023/12/26 06:11:52;;;;;;;4.35;4.03;;;;;;;9.69;100.00;100311.00;6047469;23;20105;-70
2023/12/26 06:14:19;;;;;;;3.70;3.60;;;;;;;9.73;100.00;100304.66;6038294;23;20081;-70
2023/12/26 06:16:46;;;;;;;4.15;3.95;;;;;;;9.65;100.00;100301.63;6019484;23;20087;-69
2023/12/26 06:19:12;;;;;;;4.22;4.03;;;;;;;9.68;100.00;100304.06;6044790;23;20206;-68
2023/12/26 06:21:39;;;;;;;4.07;3.88;;;;;;;9.67;100.00;100299.78;6031581;23;20030;-67
2023/12/26 06:24:05;;;;;;;3.60;3.50;;;;;;;9.69;100.00;100303.16;6051237;23;20051;-69
2023/12/26 06:26:32;;;;;;;5.10;4.88;;;;;;;9.46;100.00;100255.50;6047017;23;20394;-68
2023/12/26 06:28:58;;;;;;;3.90;3.75;;;;;;;9.86;100.00;100287.34;6042513;23;20023;-70
2023/12/26 06:31:25;;;;;;;3.88;3.67;;;;;;;9.74;100.00;100269.66;6044924;23;20014;-68
2023/12/26 06:33:51;;;;;;;4.30;4.10;;;;;;;9.81;100.00;100278.03;6036625;23;20031;-68
2023/12/26 06:36:18;;;;;;;3.70;3.50;;;;;;;8.68;100.00;100113.13;6042906;23;20034;-70
2023/12/26 06:38:45;;;;;;;3.75;3.65;;;;;;;9.82;100.00;100275.31;6021986;23;20017;-70
2023/12/26 06:41:11;;;;;;;4.45;3.75;;;;;;;9.69;100.00;100253.38;6002072;23;20546;-69
2023/12/26 06:43:38;;;;;;;4.35;4.05;;;;;;;8.98;100.00;100145.50;6048220;23;20035;-70
2023/12/26 06:46:04;;;;;;;3.90;3.70;;;;;;;9.47;100.00;100248.47;6054792;23;20017;-68
2023/12/26 06:48:31;;;;;;;4.82;4.63;;;;;;;8.66;100.00;100110.59;6023526;23;20014;-69
2023/12/26 06:50:57;;;;;;;4.00;3.80;;;;;;;9.79;100.00;100286.81;5987213;23;20047;-70
2023/12/26 06:53:24;;;;;;;3.90;3.70;;;;;;;9.78;100.00;100268.56;6044784;23;20536;-67
2023/12/26 06:55:50;;;;;;;4.03;3.83;;;;;;;9.76;100.00;100271.28;6025397;23;20496;-69
2023/12/26 06:58:17;;;;;;;3.70;3.60;;;;;;;9.79;100.00;100265.03;6051325;23;20030;-68
2023/12/26 07:00:43;;;;;;;3.55;3.45;;;;;;;9.76;100.00;100250.31;6027321;23;20007;-67
2023/12/26 07:03:11;;;;;;;3.58;3.47;;;;;;;9.72;100.00;100268.91;6037966;23;20050;-70
2023/12/26 07:05:37;;;;;;;3.70;3.60;;;;;;;9.75;100.00;100276.59;6038755;23;20017;-70
2023/12/26 07:08:04;;;;;;;4.32;4.03;;;;;;;9.73;100.00;100271.44;6022470;23;20343;-70
2023/12/26 07:10:31;;;;;;;5.50;4.60;;;;;;;9.75;100.00;100273.97;6014690;23;20131;-69
2023/12/26 07:12:57;;;;;;;4.22;4.03;;;;;;;9.20;100.00;100188.81;6040062;23;20033;-71
2023/12/26 07:15:25;;;;;;;3.90;3.70;;;;;;;9.80;100.00;100274.56;6012153;23;20312;-69
2023/12/26 07:17:52;;;;;;;4.10;3.90;;;;;;;9.72;100.00;100247.94;6051171;23;20022;-70
2023/12/26 07:20:23;;;;;;;4.43;4.22;;;;;;;9.79;100.00;100254.53;6047907;23;20154;-69
2023/12/26 07:22:50;;;;;;;4.22;4.03;;;;;;;9.78;100.00;100263.31;6026402;23;20074;-69
2023/12/26 07:25:16;;;;;;;3.53;3.42;;;;;;;9.67;100.00;100250.00;6040438;23;20122;-69
2023/12/26 07:27:43;;;;;;;3.83;3.65;;;;;;;9.77;100.00;100274.75;6017314;23;20442;-69
2023/12/26 07:30:09;;;;;;;4.03;3.83;;;;;;;9.74;100.00;100265.28;6043950;23;20028;-68
2023/12/26 07:32:36;;;;;;;5.90;5.43;;;;;;;9.66;100.00;100279.72;5982838;23;20065;-66
2023/12/26 07:35:03;;;;;;;4.13;3.92;;;;;;;9.68;100.00;100310.19;6032275;23;20497;-70
2023/12/26 07:37:29;;;;;;;4.40;4.20;;;;;;;9.16;100.00;100243.13;6050403;23;20650;-69
2023/12/26 07:39:56;;;;;;;4.68;4.25;;;;;;;9.64;100.00;100334.84;6033031;23;20026;-71
2023/12/26 07:42:22;;;;;;;4.50;4.28;;;;;;;9.62;100.00;100346.31;6048844;23;20295;-70
2023/12/26 07:44:49;;;;;;;4.03;3.83;;;;;;;9.55;100.00;100357.13;6003946;23;20086;-68
2023/12/26 07:47:15;;;;;;;4.30;4.10;;;;;;;9.31;100.00;100306.06;6054546;23;20241;-69
2023/12/26 07:49:42;;;;;;;3.67;3.58;;;;;;;9.45;100.00;100319.25;6048097;23;20668;-70
2023/12/26 07:52:09;;;;;;;4.20;3.90;;;;;;;9.38;100.00;100304.78;6014336;23;20023;-72
2023/12/26 07:54:35;;;;;;;5.25;4.95;;;;;;;9.61;100.00;100345.47;6037907;23;20488;-70
2023/12/26 07:57:02;;;;;;;4.15;3.95;;;;;;;9.81;100.00;100351.44;6056373;23;20089;-69
2023/12/26 07:59:29;;;;;;;5.88;3.70;;;;;;;9.69;100.00;100331.97;6024268;23;20078;-69
2023/12/26 08:01:55;;;;;;;4.57;4.18;;;;;;;9.43;100.00;100309.81;6046883;23;20046;-72
2023/12/26 08:04:22;;;;;;;4.75;4.45;;;;;;;9.79;100.00;100381.16;6033796;23;20370;-69
2023/12/26 08:06:48;;;;;;;4.70;4.25;;;;;;;9.52;100.00;100338.97;5979152;23;20025;-70
2023/12/26 08:09:17;;;;;;;4.20;4.00;;;;;;;9.25;100.00;100309.00;6041543;23;20130;-70
2023/12/26 08:11:44;;;;;;;5.20;4.22;;;;;;;9.69;100.00;100398.31;6053087;23;20060;-70
2023/12/26 08:14:13;;;;;;;6.75;4.13;;;;;;;9.64;100.00;100394.25;6052177;23;20441;-69
2023/12/26 08:16:39;;;;;;;3.95;3.75;;;;;;;9.68;100.00;100406.25;6051759;23;20387;-70
2023/12/26 08:19:05;;;;;;;4.20;4.00;;;;;;;9.73;100.00;100422.59;6044632;23;20025;-70
2023/12/26 08:21:32;;;;;;;4.47;4.18;;;;;;;9.76;100.00;100448.63;6036335;23;20575;-71
2023/12/26 08:23:59;;;;;;;7.43;3.97;;;;;;;9.84;100.00;100456.91;6034055;23;20101;-71
2023/12/26 08:26:30;;;;;;;5.00;4.70;;;;;;;9.72;100.00;100449.72;6023476;23;20030;-69
2023/12/26 08:28:56;;;;;;;3.85;3.65;;;;;;;9.69;100.00;100442.84;6045661;23;20105;-70
2023/12/26 08:31:23;;;;;;;4.10;3.80;;;;;;;9.78;100.00;100462.47;6045458;23;20028;-71
2023/12/26 08:33:50;;;;;;;4.03;3.78;;;;;;;9.35;100.00;100407.09;6045810;23;20385;-70
2023/12/26 08:36:16;;;;;;;4.30;4.00;;;;;;;9.56;100.00;100465.38;6022828;23;20028;-70
2023/12/26 08:38:43;;;;;;;5.05;3.75;;;;;;;9.73;100.00;100515.16;6035740;23;20023;-72
2023/12/26 08:41:12;;;;;;;4.38;4.18;;;;;;;9.55;100.00;100511.69;6008504;23;20070;-72
2023/12/26 08:43:38;;;;;;;4.20;4.00;;;;;;;9.71;100.00;100537.13;6032818;23;20109;-70
2023/12/26 08:46:05;;;;;;;5.50;5.03;;;;;;;9.33;100.00;100508.47;6027564;23;20029;-70
2023/12/26 08:48:32;;;;;;;5.15;4.95;;;;;;;9.59;100.00;100557.78;6047391;23;20030;-71
2023/12/26 08:50:59;;;;;;;4.07;3.88;;;;;;;9.53;100.00;100576.41;6024759;23;20057;-73
2023/12/26 08:53:25;;;;;;;4.25;3.70;;;;;;;9.14;100.00;100524.22;6060857;23;20079;-70
2023/12/26 08:55:51;;;;;;;5.32;4.10;;;;;;;9.70;100.00;100612.28;6047723;23;20019;-70
2023/12/26 08:58:18;;;;;;;4.45;4.25;;;;;;;8.57;100.00;100441.47;6032513;23;20022;-70
2023/12/26 09:00:45;;;;;;;4.25;4.05;;;;;;;9.64;100.00;100619.56;6016846;23;20021;-69
2023/12/26 09:03:11;;;;;;;4.53;4.22;;;;;;;9.73;100.00;100625.22;6056272;23;20027;-71
2023/12/26 09:05:40;;;;;;;4.20;4.00;;;;;;;9.83;100.00;100622.16;6049294;23;20596;-69
2023/12/26 09:08:06;;;;;;;4.40;4.20;;;;;;;9.42;100.00;100549.06;6051542;23;20039;-69
2023/12/26 09:10:33;;;;;;;5.80;5.47;;;;;;;9.45;100.00;100549.75;6047772;23;20027;-71
2023/12/26 09:12:59;;;;;;;4.03;3.83;;;;;;;9.76;100.00;100605.84;6029413;23;20034;-72
2023/12/26 09:15:26;;;;;;;5.57;3.90;;;;;;;9.74;100.00;100589.38;6040889;23;20314;-70
2023/12/26 09:17:52;;;;;;;4.40;4.10;;;;;;;9.63;100.00;100566.34;6052895;23;20029;-70
2023/12/26 09:20:19;;;;;;;4.38;4.05;;;;;;;8.81;100.00;100435.16;6044460;23;20064;-72
2023/12/26 09:22:45;;;;;;;4.32;4.13;;;;;;;9.93;100.00;100603.25;6027259;23;20494;-69
2023/12/26 09:25:13;;;;;;;4.38;4.18;;;;;;;9.91;100.00;100585.91;6048960;23;20029;-70
2023/12/26 09:27:42;;;;;;;5.07;4.78;;;;;;;9.95;100.00;100585.66;6051758;23;20524;-70
2023/12/26 09:30:09;;;;;;;4.97;4.68;;;;;;;9.94;100.00;100572.63;6042641;23;20058;-71
2023/12/26 09:32:36;;;;;;;6.30;5.75;;;;;;;10.14;100.00;100585.56;6046190;23;20212;-69
2023/12/26 09:35:03;;;;;;;5.80;4.60;;;;;;;10.23;100.00;100570.28;6027633;23;20027;-70
2023/12/26 09:37:34;;;;;;;4.80;4.40;;;;;;;10.26;100.00;100521.09;6026442;23;20082;-71
2023/12/26 09:40:02;;;;;;;5.70;4.63;;;;;;;10.30;100.00;100483.34;6022828;23;20054;-69
2023/12/26 09:42:29;;;;;;;5.47;5.10;;;;;;;10.35;100.00;100477.84;6022760;23;20060;-71
2023/12/26 09:44:57;;;;;;;4.20;4.00;;;;;;;9.76;100.00;100347.28;6048326;23;20363;-71
2023/12/26 09:47:25;;;;;;;4.20;4.00;;;;;;;10.24;100.00;100391.00;6030017;23;20034;-73
2023/12/26 09:49:54;;;;;;;5.90;5.13;;;;;;;10.07;100.00;100292.31;6046823;23;20044;-69
2023/12/26 09:52:21;;;;;;;5.30;4.80;;;;;;;10.09;100.00;100293.91;6054050;23;20023;-70
2023/12/26 09:54:49;;;;;;;4.15;3.95;;;;;;;9.82;100.00;100245.66;6054036;23;20026;-70
2023/12/26 09:57:15;;;;;;;5.20;4.75;;;;;;;10.27;100.00;100338.38;6053616;23;20029;-68
2023/12/26 09:59:43;;;;;;;4.32;4.13;;;;;;;9.65;100.00;100252.69;6055175;23;20029;-72
2023/12/26 10:02:13;;;;;;;4.35;4.15;;;;;;;9.52;100.00;100222.84;6044290;23;20026;-70
2023/12/26 10:04:40;;;;;;;4.47;4.25;;;;;;;9.90;100.00;100261.78;6037171;23;20328;-71
2023/12/26 10:07:06;;;;;;;4.07;3.88;;;;;;;9.98;100.00;100289.28;6023981;23;20030;-70
2023/12/26 10:09:33;;;;;;;4.15;3.92;;;;;;;10.24;100.00;100320.19;6037550;23;20403;-69
2023/12/26 10:11:59;;;;;;;9.38;4.60;;;;;;;10.36;100.00;100328.25;6034357;23;20018;-72
2023/12/26 10:14:31;;;;;;;5.93;5.35;;;;;;;10.50;100.00;100342.34;6046373;23;20027;-70
2023/12/26 10:16:58;;;;;;;5.18;4.55;;;;;;;10.47;100.00;100303.16;6050571;23;20388;-71
2023/12/26 10:19:25;;;;;;;3.75;3.55;;;;;;;10.57;100.00;100271.03;6054075;23;20504;-70
2023/12/26 10:21:53;;;;;;;4.20;4.00;;;;;;;8.41;100.00;99844.34;6053042;23;20463;-71
2023/12/26 10:24:20;;;;;;;4.13;3.92;;;;;;;10.54;100.00;100166.28;6033074;23;20098;-72
2023/12/26 10:26:47;;;;;;;4.65;4.20;;;;;;;10.17;100.00;100128.28;6023163;23;20666;-69
2023/12/26 10:29:15;;;;;;;4.60;4.35;;;;;;;10.18;100.00;100073.13;6031692;23;20027;-71
2023/12/26 10:31:42;;;;;;;6.95;3.95;;;;;;;10.12;100.00;100046.41;6032785;23;20367;-70
2023/12/26 10:34:19;;;;;;;4.93;4.72;;;;;;;10.42;100.00;100053.38;6046643;23;20026;-70
2023/12/26 10:36:48;;;;;;;13.95;3.90;;;;;;;10.32;100.00;100004.13;6038544;23;20018;-69
2023/12/26 10:39:15;;;;;;;4.10;3.90;;;;;;;10.17;100.00;99999.78;6029169;23;20086;-71
2023/12/26 10:41:47;;;;;;;4.75;4.45;;;;;;;9.73;100.00;99971.91;6047406;23;20226;-70
2023/12/26 10:44:15;;;;;;;4.70;4.30;;;;;;;9.75;100.00;100053.88;6022077;23;20239;-71
2023/12/26 10:46:43;;;;;;;4.20;4.00;;;;;;;9.96;100.00;100122.50;6032557;23;20104;-69
2023/12/26 10:49:11;;;;;;;5.40;3.72;;;;;;;9.64;100.00;100120.00;6049482;23;20235;-70
2023/12/26 10:51:43;;;;;;;4.20;3.90;;;;;;;9.46;100.00;100116.66;6000352;23;20616;-74
2023/12/26 10:54:19;;;;;;;3.83;3.65;;;;;;;9.71;100.00;100188.63;6043451;23;20328;-69
2023/12/26 10:56:50;;;;;;;3.95;3.75;;;;;;;9.64;100.00;100205.59;6052016;23;20450;-71
2023/12/26 13:52:31;;;;;;;3.50;3.40;;;;;;;9.39;90.41;100239.25;6058444;23;20023;-69
2023/12/26 13:55:35;;;;;;;4.38;4.07;;;;;;;9.27;92.05;100273.94;6031682;23;20030;-70
2023/12/26 13:58:39;;;;;;;5.47;3.55;;;;;;;9.31;88.84;100215.25;6053957;23;20020;-72
2023/12/26 14:01:43;;;;;;;3.45;3.35;;;;;;;9.13;89.92;100234.56;6013673;23;20417;-70
2023/12/26 14:04:47;;;;;;;3.40;3.30;;;;;;;9.09;92.27;100333.38;6064039;23;20097;-71
2023/12/26 14:07:55;;;;;;;3.75;3.45;;;;;;;8.92;93.78;100355.19;6057194;23;20012;-71
2023/12/26 14:10:59;;;;;;;4.47;4.10;;;;;;;8.94;94.54;100383.88;6016592;23;20302;-73
2023/12/26 14:14:03;;;;;;;4.32;3.40;;;;;;;8.90;94.66;100385.81;6029250;23;20093;-69
2023/12/26 14:17:07;;;;;;;9.90;4.43;;;;;;;8.85;93.36;100342.47;6029546;23;20037;-73
2023/12/26 14:20:11;;;;;;;3.30;3.20;;;;;;;8.67;95.58;100394.78;6034131;23;20239;-70
2023/12/26 14:23:15;;;;;;;4.60;4.25;;;;;;;8.61;97.68;100451.81;6032995;23;20107;-72